Alpha, Washington
Current Conditions -  °F | °C
As of 4:15 PM on Monday 24 Nov 2014 (Local Time) from KCLS Reporting Station
Overcast Overcast  
Wind Chill: 50°   Ceiling: 3400
Heat Index: 50°   Visibility: 10mi
Dew Point: 48°   Wind: 13mph
Humidity: 94%   Direction: 180°S
Pressure: 30.19"   Gusts: 20mph
Location:  46.5995°N, 122.665°W
Report Text: KCLS 250015Z AUTO 18011G17KT 10SM OVC034 10/09 A3019 RMK AO2
Loading
Personal Weather Stations






























Interactive Weather Map New forecast layout! Learn more

10-Day Weather Forecast

Advertisements
Track Severe Weather on mobile